Time;durP1;ratioP1;P1;durP2;ratioP2;P2;SDS_P1;SDS_P2;PMS_P1;PMS_P2;Temp;Humidity;BMP_temperature;BMP_pressure;BME280_temperature;BME280_humidity;BME280_pressure;Samples;Min_cycle;Max_cycle;Signal;HPM_P1;HPM_P2
2022/03/09 00:01:38;;;;;;;2.95;1.88;;;;;;;-145.06;0.00;60892.56;4656724;29;20030;-89
2022/03/09 00:04:16;;;;;;;2.13;1.50;;;;;;;-145.06;0.00;60892.56;4669946;29;20035;-90
2022/03/09 00:06:56;;;;;;;2.57;2.10;;;;;;;-145.06;0.00;60892.56;4669435;29;20276;-90
2022/03/09 00:09:34;;;;;;;2.83;1.80;;;;;;;-145.06;0.00;60892.56;4668611;29;20275;-89
2022/03/09 00:12:13;;;;;;;2.60;1.80;;;;;;;-145.06;0.00;60892.56;4674444;29;20038;-91
2022/03/09 00:14:53;;;;;;;2.43;1.53;;;;;;;-145.06;0.00;60892.56;4673856;29;20030;-90
2022/03/09 00:17:31;;;;;;;2.13;1.58;;;;;;;-145.06;0.00;60892.56;4674108;29;20278;-91
2022/03/09 00:20:11;;;;;;;2.60;1.93;;;;;;;-145.06;0.00;60892.56;4681465;29;20117;-90
2022/03/09 00:22:50;;;;;;;2.50;1.58;;;;;;;-145.06;0.00;60892.56;4690488;29;20042;-90
2022/03/09 00:25:29;;;;;;;2.33;1.83;;;;;;;-145.06;0.00;60892.56;4674103;29;20034;-91
2022/03/09 00:28:08;;;;;;;3.22;1.85;;;;;;;-145.06;0.00;60892.56;4674226;29;20033;-89
2022/03/09 00:30:47;;;;;;;2.57;1.67;;;;;;;-145.06;0.00;60892.56;4668477;29;20113;-90
2022/03/09 00:33:26;;;;;;;3.40;1.93;;;;;;;-145.06;0.00;60892.56;4665456;29;20383;-89
2022/03/09 00:36:05;;;;;;;3.10;1.65;;;;;;;-145.06;0.00;60892.56;4673276;29;20038;-90
2022/03/09 00:38:44;;;;;;;2.83;1.90;;;;;;;2.71;0.00;60892.56;4659379;29;20046;-91
2022/03/09 00:41:23;;;;;;;2.13;1.63;;;;;;;-145.06;0.00;60892.56;4672649;29;20049;-90
2022/03/09 00:44:03;;;;;;;2.88;1.55;;;;;;;-145.06;0.00;60892.56;4668843;29;20274;-91
2022/03/09 00:46:42;;;;;;;2.40;1.70;;;;;;;187.52;0.00;60892.56;4673152;29;20034;-90
2022/03/09 00:49:21;;;;;;;2.27;1.67;;;;;;;-145.06;0.00;60892.56;4681457;29;20038;-91
2022/03/09 00:52:00;;;;;;;2.40;1.60;;;;;;;-145.06;0.00;60892.56;4679531;29;20433;-89
2022/03/09 00:54:39;;;;;;;2.20;1.73;;;;;;;-145.06;0.00;60892.56;4672007;29;20113;-90
2022/03/09 00:57:18;;;;;;;2.33;1.63;;;;;;;-145.06;0.00;60892.56;4668183;29;20045;-91
2022/03/09 00:59:57;;;;;;;2.83;2.10;;;;;;;-145.06;0.00;60892.56;4672609;29;20053;-88
2022/03/09 01:02:43;;;;;;;3.47;2.07;;;;;;;-145.06;0.00;60892.56;4673060;29;20033;-90
2022/03/09 01:05:22;;;;;;;3.00;1.70;;;;;;;-145.06;0.00;60892.56;4673079;29;20481;-90
2022/03/09 01:08:01;;;;;;;3.03;2.03;;;;;;;-145.06;0.00;60892.56;4688032;29;20041;-89
2022/03/09 01:10:40;;;;;;;2.28;1.85;;;;;;;-145.06;0.00;60892.56;4662877;29;20029;-89
2022/03/09 01:13:21;;;;;;;2.90;1.92;;;;;;;-145.06;0.00;60892.56;4673847;29;20034;-90
2022/03/09 01:16:00;;;;;;;2.97;1.88;;;;;;;-145.06;0.00;60892.56;4673393;29;20073;-89
2022/03/09 01:18:39;;;;;;;3.15;2.08;;;;;;;-145.06;0.00;60892.56;4658893;29;20030;-91
2022/03/09 01:21:18;;;;;;;3.07;2.10;;;;;;;-145.06;0.00;60892.56;4657164;29;20043;-88
2022/03/09 01:23:56;;;;;;;2.72;2.05;;;;;;;-145.06;0.00;60892.56;4669006;29;20731;-90
2022/03/09 01:26:36;;;;;;;3.17;2.07;;;;;;;-145.06;0.00;60892.56;4672808;29;20045;-90
2022/03/09 01:29:15;;;;;;;;;;;;;;;-145.06;0.00;60892.56;4688978;29;20398;-89
2022/03/09 01:31:54;;;;;;;2.17;1.50;;;;;;;-145.06;0.00;60892.56;4672333;29;19917;-88
2022/03/09 01:34:34;;;;;;;2.85;1.83;;;;;;;-145.06;0.00;60892.56;4671563;29;20402;-88
2022/03/09 01:37:12;;;;;;;2.78;1.70;;;;;;;-145.06;0.00;60892.56;4671393;29;20449;-88
2022/03/09 01:39:52;;;;;;;1.95;1.58;;;;;;;-145.06;0.00;60892.56;4669412;29;20057;-90
2022/03/09 01:42:31;;;;;;;2.30;1.63;;;;;;;-145.06;0.00;60892.56;4672542;29;20037;-89
2022/03/09 01:45:13;;;;;;;2.00;1.67;;;;;;;-145.06;0.00;60892.56;4671710;29;20386;-89
2022/03/09 01:47:52;;;;;;;2.72;1.73;;;;;;;-145.06;0.00;60892.56;4673643;29;20042;-90
2022/03/09 01:50:31;;;;;;;2.30;1.53;;;;;;;-145.06;0.00;60892.56;4681862;29;20033;-90
2022/03/09 01:53:11;;;;;;;2.53;1.83;;;;;;;-145.06;0.00;60892.56;4681657;29;20061;-89
2022/03/09 01:55:50;;;;;;;2.20;1.73;;;;;;;-145.06;0.00;60892.56;4672598;29;20066;-90
2022/03/09 01:58:29;;;;;;;3.03;2.10;;;;;;;2.89;0.00;60892.56;4673274;29;20485;-90
2022/03/09 02:01:08;;;;;;;2.83;2.17;;;;;;;187.52;0.00;60892.56;4678357;29;20045;-89
2022/03/09 02:03:47;;;;;;;2.17;1.50;;;;;;;-145.06;0.00;60892.56;4675506;29;20046;-90
2022/03/09 02:06:27;;;;;;;2.47;1.73;;;;;;;21.08;0.00;60892.56;4675789;29;20049;-89
2022/03/09 02:12:06;;;;;;;1.88;1.50;;;;;;;1.59;0.00;60892.56;4667123;29;20038;-90
2022/03/09 02:14:50;;;;;;;2.05;1.40;;;;;;;-145.06;0.00;60892.56;4670043;29;20041;-89
2022/03/09 02:17:29;;;;;;;2.13;1.50;;;;;;;-145.06;0.00;60892.56;4675907;29;20038;-90
2022/03/09 02:20:08;;;;;;;2.83;1.65;;;;;;;-145.06;0.00;60892.56;4671999;29;20070;-91
2022/03/09 02:22:48;;;;;;;2.42;1.67;;;;;;;1.59;0.00;60892.56;4688260;29;20033;-90
2022/03/09 02:25:27;;;;;;;2.27;1.73;;;;;;;10.68;0.00;60892.56;4678022;29;20034;-90
2022/03/09 02:28:06;;;;;;;2.97;1.95;;;;;;;-145.06;0.00;60892.56;4693071;29;20267;-90
2022/03/09 02:30:45;;;;;;;2.05;1.75;;;;;;;-145.06;0.00;60892.56;4687638;29;20046;-89
2022/03/09 02:33:24;;;;;;;2.35;1.58;;;;;;;-145.06;0.00;60892.56;4677863;29;20492;-90
2022/03/09 02:36:03;;;;;;;2.42;2.00;;;;;;;1.43;0.00;60892.56;4675267;29;20054;-89
2022/03/09 02:38:42;;;;;;;;;;;;;;;1.30;0.00;60892.56;4675855;29;20034;-90
2022/03/09 02:41:21;;;;;;;2.50;1.90;;;;;;;-145.06;0.00;60892.56;4659169;29;19913;-91
2022/03/09 02:44:01;;;;;;;2.50;1.58;;;;;;;-145.06;0.00;60892.56;4674498;29;20275;-90
2022/03/09 02:46:41;;;;;;;1.95;1.33;;;;;;;-145.06;0.00;60892.56;4662874;29;20386;-91
2022/03/09 02:49:19;;;;;;;1.45;1.20;;;;;;;-145.06;0.00;60892.56;4675519;29;20421;-89
2022/03/09 02:51:59;;;;;;;2.63;1.43;;;;;;;-145.06;0.00;60892.56;4675627;29;20112;-90
2022/03/09 02:54:38;;;;;;;3.60;1.83;;;;;;;-145.06;0.00;60892.56;4672903;29;20034;-89
2022/03/09 02:57:17;;;;;;;;;;;;;;;-145.06;0.00;60892.56;4666357;29;20038;-90
2022/03/09 02:59:56;;;;;;;2.10;1.47;;;;;;;-145.06;0.00;60892.56;4688714;29;19917;-90
2022/03/09 03:02:36;;;;;;;2.47;1.48;;;;;;;-145.06;0.00;60892.56;4674462;29;20037;-90
2022/03/09 03:05:15;;;;;;;;;;;;;;;-145.06;0.00;60892.56;4683159;29;20421;-89
2022/03/09 03:07:54;;;;;;;2.17;1.47;;;;;;;-145.06;0.00;60892.56;4674819;29;19920;-89
2022/03/09 03:10:33;;;;;;;1.67;1.47;;;;;;;-145.06;0.00;60892.56;4673718;29;20286;-89
2022/03/09 03:13:12;;;;;;;1.70;1.23;;;;;;;-145.06;0.00;60892.56;4674064;29;20033;-90
2022/03/09 03:15:51;;;;;;;2.05;1.48;;;;;;;-145.06;0.00;60892.56;4674323;29;20045;-90
2022/03/09 03:18:30;;;;;;;2.60;1.50;;;;;;;-145.06;0.00;60892.56;4674354;29;20030;-90
2022/03/09 03:21:09;;;;;;;1.77;1.30;;;;;;;-145.06;0.00;60892.56;4681658;29;20282;-89
2022/03/09 03:23:48;;;;;;;1.77;1.30;;;;;;;-145.06;0.00;60892.56;4683031;29;20342;-89
2022/03/09 03:26:28;;;;;;;1.40;1.17;;;;;;;-145.06;0.00;60892.56;4674022;29;20045;-88
2022/03/09 03:29:07;;;;;;;2.20;1.30;;;;;;;-145.06;0.00;60892.56;4681008;29;20042;-90
2022/03/09 03:31:46;;;;;;;2.83;1.43;;;;;;;-145.06;0.00;60892.56;4668181;29;20042;-89
2022/03/09 03:34:25;;;;;;;2.53;1.33;;;;;;;-145.06;0.00;60892.56;4671870;29;20046;-89
2022/03/09 03:37:05;;;;;;;2.00;1.27;;;;;;;10.68;0.00;60892.56;4669055;29;20445;-88
2022/03/09 03:39:44;;;;;;;1.75;1.25;;;;;;;-145.06;0.00;60892.56;4668608;29;20492;-90
2022/03/09 03:42:23;;;;;;;1.27;1.07;;;;;;;-145.06;0.00;60892.56;4674343;29;20030;-89
2022/03/09 03:45:02;;;;;;;1.73;1.20;;;;;;;-145.06;0.00;60892.56;4673733;29;20602;-89
2022/03/09 03:47:41;;;;;;;1.65;1.23;;;;;;;-145.06;0.00;60892.56;4673082;29;20057;-89
2022/03/09 03:50:20;;;;;;;1.63;1.13;;;;;;;-145.06;0.00;60892.56;4673288;29;20038;-88
2022/03/09 03:53:00;;;;;;;2.17;1.30;;;;;;;-145.06;0.00;60892.56;4670723;29;20358;-89
2022/03/09 03:55:39;;;;;;;2.45;1.42;;;;;;;21.08;0.00;60892.56;4664797;29;20046;-89
2022/03/09 03:58:18;;;;;;;1.33;1.15;;;;;;;-145.06;0.00;60892.56;4681893;29;20037;-90
2022/03/09 04:00:56;;;;;;;1.57;1.10;;;;;;;187.52;0.00;60892.56;4673219;29;20042;-89
2022/03/09 04:03:36;;;;;;;1.60;1.02;;;;;;;-145.06;0.00;60892.56;4673614;29;20489;-90
2022/03/09 04:06:15;;;;;;;1.42;1.02;;;;;;;-145.06;0.00;60892.56;4673830;29;20207;-90
2022/03/09 04:08:54;;;;;;;1.50;1.20;;;;;;;-145.06;0.00;60892.56;4673401;29;20370;-89
2022/03/09 04:11:33;;;;;;;2.00;1.20;;;;;;;-145.06;0.00;60892.56;4673444;29;20278;-89
2022/03/09 04:14:11;;;;;;;1.73;1.48;;;;;;;-145.06;0.00;60892.56;4671104;29;20125;-90
2022/03/09 04:16:51;;;;;;;1.27;1.03;;;;;;;-145.06;0.00;60892.56;4672178;29;20041;-89
2022/03/09 04:19:30;;;;;;;1.67;1.23;;;;;;;-145.06;0.00;60892.56;4673340;29;20034;-90
2022/03/09 04:22:09;;;;;;;1.50;1.30;;;;;;;-145.06;0.00;60892.56;4676169;29;20038;-88
2022/03/09 04:24:48;;;;;;;1.60;1.20;;;;;;;-145.06;0.00;60892.56;4684150;29;20275;-89
2022/03/09 04:27:28;;;;;;;1.33;1.02;;;;;;;-145.06;0.00;60892.56;4667806;29;20046;-90
2022/03/09 04:30:07;;;;;;;;;;;;;;;-145.06;0.00;60892.56;4673296;29;20038;-89
2022/03/09 04:32:46;;;;;;;1.65;1.15;;;;;;;-145.06;0.00;60892.56;4680134;29;19916;-90
2022/03/09 04:35:25;;;;;;;1.75;1.23;;;;;;;-145.06;0.00;60892.56;4673503;29;20046;-90
2022/03/09 04:38:04;;;;;;;1.83;1.13;;;;;;;1.58;0.00;60892.56;4673211;29;20065;-90
2022/03/09 04:40:43;;;;;;;1.77;1.38;;;;;;;-145.06;0.00;60892.56;4673356;29;20279;-90
2022/03/09 04:43:22;;;;;;;1.97;1.23;;;;;;;21.08;0.00;60892.56;4672777;29;20037;-88
2022/03/09 04:46:01;;;;;;;1.33;1.10;;;;;;;-145.06;0.00;60892.56;4669600;29;20611;-90
2022/03/09 04:48:40;;;;;;;1.17;1.08;;;;;;;1.59;0.00;60892.56;4672817;29;20383;-89
2022/03/09 04:51:20;;;;;;;1.70;1.20;;;;;;;-145.06;0.00;60892.56;4674888;29;20041;-88
2022/03/09 04:53:59;;;;;;;1.95;1.30;;;;;;;1.59;0.00;60892.56;4674317;29;20034;-90
2022/03/09 04:56:38;;;;;;;1.57;1.10;;;;;;;1.40;0.00;60892.56;4673235;29;20038;-89
2022/03/09 04:59:17;;;;;;;2.63;1.45;;;;;;;1.59;0.00;60892.56;4681024;29;20568;-89
2022/03/09 05:01:56;;;;;;;1.65;1.30;;;;;;;-145.06;0.00;60892.56;4670254;29;20393;-90
2022/03/09 05:04:35;;;;;;;1.88;1.25;;;;;;;1.30;0.00;60892.56;4672460;29;20042;-89
2022/03/09 05:07:14;;;;;;;2.53;1.30;;;;;;;-145.06;0.00;60892.56;4673451;29;20548;-90
2022/03/09 05:09:53;;;;;;;1.52;1.10;;;;;;;-145.06;0.00;60892.56;4671934;29;20042;-89
2022/03/09 05:12:32;;;;;;;1.90;1.33;;;;;;;-145.06;0.00;60892.56;4671820;29;20038;-89
2022/03/09 05:15:11;;;;;;;4.00;1.43;;;;;;;-145.06;0.00;60892.56;4672713;29;20125;-90
2022/03/09 05:17:50;;;;;;;2.08;1.33;;;;;;;-145.06;0.00;60892.56;4667211;29;20354;-89
2022/03/09 05:20:29;;;;;;;2.10;1.50;;;;;;;-145.06;0.00;60892.56;4672500;29;20390;-90
2022/03/09 05:23:08;;;;;;;1.87;1.20;;;;;;;-145.06;0.00;60892.56;4680352;29;20278;-89
2022/03/09 05:25:47;;;;;;;2.05;1.30;;;;;;;-145.06;0.00;60892.56;4680440;29;20026;-89
2022/03/09 05:28:26;;;;;;;1.58;1.40;;;;;;;-145.06;0.00;60892.56;4672320;29;20073;-90
2022/03/09 05:31:05;;;;;;;3.72;1.70;;;;;;;-145.06;0.00;60892.56;4670399;29;20084;-89
2022/03/09 05:33:44;;;;;;;2.40;1.67;;;;;;;-145.06;0.00;60892.56;4672715;29;20037;-90
2022/03/09 05:36:23;;;;;;;2.03;1.40;;;;;;;-145.06;0.00;60892.56;4675915;29;20033;-89
2022/03/09 05:39:02;;;;;;;2.28;1.40;;;;;;;-145.06;0.00;60892.56;4675132;29;20033;-89
2022/03/09 05:41:42;;;;;;;;;;;;;;;-145.06;0.00;60892.56;4677790;29;20049;-90
2022/03/09 05:44:20;;;;;;;1.35;0.90;;;;;;;-145.06;0.00;60892.56;4675041;29;20268;-89
2022/03/09 05:47:00;;;;;;;2.55;1.52;;;;;;;-145.06;0.00;60892.56;4694808;29;20029;-89
2022/03/09 05:49:39;;;;;;;1.63;1.20;;;;;;;-145.06;0.00;60892.56;4692210;29;20042;-89
2022/03/09 05:52:19;;;;;;;2.25;1.33;;;;;;;-145.06;0.00;60892.56;4677421;29;20037;-89
2022/03/09 05:54:58;;;;;;;2.55;1.40;;;;;;;-145.06;0.00;60892.56;4673314;29;20034;-90
2022/03/09 05:57:37;;;;;;;2.90;1.80;;;;;;;-145.06;0.00;60892.56;4675867;29;20034;-90
2022/03/09 06:00:16;;;;;;;2.80;1.73;;;;;;;-145.06;0.00;60892.56;4679259;29;20046;-90
2022/03/09 06:02:55;;;;;;;2.47;1.60;;;;;;;-145.06;0.00;60892.56;4674026;29;20580;-90
2022/03/09 06:05:34;;;;;;;1.80;1.33;;;;;;;-145.06;0.00;60892.56;4662150;29;20029;-92
2022/03/09 06:08:13;;;;;;;1.70;1.35;;;;;;;-145.06;0.00;60892.56;4673260;29;20050;-89
2022/03/09 06:10:52;;;;;;;2.30;1.63;;;;;;;-145.06;0.00;60892.56;4678105;29;20046;-90
2022/03/09 06:13:31;;;;;;;;;;;;;;;-145.06;0.00;60892.56;4673233;29;20038;-90
2022/03/09 06:16:11;;;;;;;2.22;1.52;;;;;;;-145.06;0.00;60892.56;4674708;29;19920;-90
2022/03/09 06:18:49;;;;;;;2.67;1.58;;;;;;;-145.06;0.00;60892.56;4673314;29;20041;-90
2022/03/09 06:21:28;;;;;;;1.60;1.25;;;;;;;-145.06;0.00;60892.56;4666923;29;20038;-89
2022/03/09 06:24:07;;;;;;;2.97;1.80;;;;;;;-145.06;0.00;60892.56;4674537;29;20038;-88
2022/03/09 06:26:47;;;;;;;2.28;1.67;;;;;;;-145.06;0.00;60892.56;4670740;29;20124;-89
2022/03/09 06:29:26;;;;;;;3.83;1.88;;;;;;;-145.06;0.00;60892.56;4675275;29;20695;-91
2022/03/09 06:32:05;;;;;;;2.80;1.83;;;;;;;-145.06;0.00;60892.56;4675943;29;20500;-89
2022/03/09 06:34:45;;;;;;;3.80;2.08;;;;;;;-145.06;0.00;60892.56;4678319;29;20042;-91
2022/03/09 06:37:23;;;;;;;2.77;1.60;;;;;;;-145.06;0.00;60892.56;4675418;29;20037;-89
2022/03/09 06:40:04;;;;;;;3.08;1.83;;;;;;;-145.06;0.00;60892.56;4670952;29;20476;-91
2022/03/09 06:42:43;;;;;;;2.80;1.80;;;;;;;-145.06;0.00;60892.56;4675845;29;20065;-91
2022/03/09 06:45:22;;;;;;;2.83;1.73;;;;;;;-145.06;0.00;60892.56;4676415;29;20069;-90
2022/03/09 06:48:02;;;;;;;2.00;1.57;;;;;;;-145.06;0.00;60892.56;4676703;29;20065;-89
2022/03/09 06:50:41;;;;;;;;;;;;;;;-145.06;0.00;60892.56;4677577;29;20034;-90
2022/03/09 06:53:20;;;;;;;2.55;1.67;;;;;;;-145.06;0.00;60892.56;4665836;29;19917;-90
2022/03/09 06:55:59;;;;;;;2.73;2.10;;;;;;;-145.06;0.00;60892.56;4675310;29;20121;-90
2022/03/09 06:58:38;;;;;;;2.60;1.80;;;;;;;-145.06;0.00;60892.56;4674631;29;20270;-91
2022/03/09 07:01:17;;;;;;;3.17;2.13;;;;;;;-145.06;0.00;60892.56;4674820;29;20645;-90
2022/03/09 07:03:56;;;;;;;3.37;1.77;;;;;;;-145.06;0.00;60892.56;4679010;29;20306;-91
2022/03/09 07:06:35;;;;;;;3.17;2.00;;;;;;;-145.06;0.00;60892.56;4670595;29;20644;-90
2022/03/09 07:09:14;;;;;;;4.37;2.50;;;;;;;-145.06;0.00;60892.56;4667838;29;20037;-90
2022/03/09 07:11:53;;;;;;;3.22;2.13;;;;;;;-145.06;0.00;60892.56;4668585;29;20045;-89
2022/03/09 07:14:32;;;;;;;2.87;1.70;;;;;;;-145.06;0.00;60892.56;4672633;29;20433;-90
2022/03/09 07:17:11;;;;;;;2.33;1.70;;;;;;;-145.06;0.00;60892.56;4678573;29;20041;-90
2022/03/09 07:19:51;;;;;;;2.20;1.60;;;;;;;-145.06;0.00;60892.56;4672932;29;20406;-90
2022/03/09 07:22:30;;;;;;;2.40;1.67;;;;;;;-145.06;0.00;60892.56;4669113;29;20117;-89
2022/03/09 07:25:10;;;;;;;1.67;1.38;;;;;;;1.13;0.00;60892.56;4673596;29;20046;-89
2022/03/09 07:27:48;;;;;;;2.53;1.60;;;;;;;-145.06;0.00;60892.56;4673553;29;20037;-90
2022/03/09 07:30:28;;;;;;;2.70;1.65;;;;;;;-145.06;0.00;60892.56;4679885;29;20038;-92
2022/03/09 07:33:06;;;;;;;2.17;1.45;;;;;;;-145.06;0.00;60892.56;4669322;29;20046;-89
2022/03/09 07:35:45;;;;;;;2.25;1.73;;;;;;;-145.06;0.00;60892.56;4672323;29;20077;-89
2022/03/09 07:38:24;;;;;;;2.55;1.63;;;;;;;-145.06;0.00;60892.56;4668788;29;20092;-90
2022/03/09 07:41:04;;;;;;;3.35;1.80;;;;;;;-145.06;0.00;60892.56;4665414;29;20081;-89
2022/03/09 07:43:43;;;;;;;2.72;1.80;;;;;;;-145.06;0.00;60892.56;4667618;29;20483;-91
2022/03/09 07:46:22;;;;;;;2.33;1.50;;;;;;;-145.06;0.00;60892.56;4673417;29;20041;-90
2022/03/09 07:49:01;;;;;;;2.25;1.50;;;;;;;-145.06;0.00;60892.56;4669634;29;20437;-90
2022/03/09 07:51:40;;;;;;;3.05;1.95;;;;;;;-145.06;0.00;60892.56;4671212;29;20070;-89
2022/03/09 07:54:19;;;;;;;6.18;1.95;;;;;;;-145.06;0.00;60892.56;4677828;29;20081;-90
2022/03/09 07:56:59;;;;;;;2.57;1.80;;;;;;;-145.06;0.00;60892.56;4674651;29;20049;-90
2022/03/09 07:59:38;;;;;;;3.20;2.08;;;;;;;-145.06;0.00;60892.56;4688516;29;20750;-90
2022/03/09 08:02:16;;;;;;;2.45;1.77;;;;;;;-145.06;0.00;60892.56;4667451;29;20042;-89
2022/03/09 08:04:56;;;;;;;2.25;1.73;;;;;;;-145.06;0.00;60892.56;4674499;29;20034;-90
2022/03/09 08:07:35;;;;;;;;;;;;;;;-145.06;0.00;60892.56;4674996;29;20069;-90
2022/03/09 08:10:14;;;;;;;3.08;1.50;;;;;;;-145.06;0.00;60892.56;4674371;29;19943;-90
2022/03/09 08:12:53;;;;;;;2.43;1.70;;;;;;;-145.06;0.00;60892.56;4674584;29;20069;-90
2022/03/09 08:15:34;;;;;;;2.72;1.85;;;;;;;-145.06;0.00;60892.56;4674375;29;20287;-90
2022/03/09 08:18:13;;;;;;;2.47;1.40;;;;;;;-145.06;0.00;60892.56;4674393;29;20073;-90
2022/03/09 08:20:52;;;;;;;2.43;1.80;;;;;;;-145.06;0.00;60892.56;4674099;29;20034;-90
2022/03/09 08:23:31;;;;;;;3.45;1.85;;;;;;;-145.06;0.00;60892.56;4669298;29;20303;-90
2022/03/09 08:26:10;;;;;;;4.50;1.90;;;;;;;-145.06;0.00;60892.56;4656596;29;20046;-91
2022/03/09 08:28:49;;;;;;;3.78;2.30;;;;;;;-145.06;0.00;60892.56;4681590;29;20492;-91
2022/03/09 08:31:28;;;;;;;2.72;2.00;;;;;;;-145.06;0.00;60892.56;4679786;29;20057;-90
2022/03/09 08:34:07;;;;;;;3.13;2.10;;;;;;;-145.06;0.00;60892.56;4673573;29;20117;-90
2022/03/09 08:36:47;;;;;;;3.65;2.20;;;;;;;-145.06;0.00;60892.56;4673621;29;20202;-90
2022/03/09 08:39:26;;;;;;;3.20;2.10;;;;;;;-145.06;0.00;60892.56;4669047;29;20501;-89
2022/03/09 08:42:05;;;;;;;4.57;2.70;;;;;;;-145.06;0.00;60892.56;4657059;29;20770;-89
2022/03/09 08:44:44;;;;;;;4.25;2.63;;;;;;;-145.06;0.00;60892.56;4655742;29;20038;-90
2022/03/09 08:47:23;;;;;;;3.35;2.20;;;;;;;-145.06;0.00;60892.56;4674887;29;20042;-89
2022/03/09 08:50:03;;;;;;;3.92;2.13;;;;;;;-145.06;0.00;60892.56;4672782;29;20030;-90
2022/03/09 08:52:43;;;;;;;3.33;1.90;;;;;;;-145.06;0.00;60892.56;4673143;29;20029;-89
2022/03/09 08:55:22;;;;;;;3.42;2.20;;;;;;;-145.06;0.00;60892.56;4667024;29;20478;-91
2022/03/09 08:58:02;;;;;;;2.85;2.05;;;;;;;-145.06;0.00;60892.56;4684904;29;20108;-89
2022/03/09 09:00:41;;;;;;;3.70;2.30;;;;;;;-145.06;0.00;60892.56;4675496;29;20110;-89
2022/03/09 09:03:19;;;;;;;3.40;2.35;;;;;;;-145.06;0.00;60892.56;4656143;29;20034;-90
2022/03/09 09:06:00;;;;;;;2.97;1.88;;;;;;;-145.06;0.00;60892.56;4670562;29;20429;-89
2022/03/09 09:08:40;;;;;;;2.90;2.17;;;;;;;-145.06;0.00;60892.56;4692562;29;20042;-90
2022/03/09 09:11:19;;;;;;;2.40;1.75;;;;;;;-145.06;0.00;60892.56;4692926;29;20042;-90
2022/03/09 09:13:57;;;;;;;2.87;1.80;;;;;;;-145.06;0.00;60892.56;4676461;29;20034;-89
2022/03/09 09:16:38;;;;;;;2.95;2.15;;;;;;;-145.06;0.00;60892.56;4677703;29;20057;-90
2022/03/09 09:19:18;;;;;;;3.45;2.20;;;;;;;-145.06;0.00;60892.56;4674578;29;20026;-92
2022/03/09 09:21:57;;;;;;;4.13;2.20;;;;;;;-145.06;0.00;60892.56;4673028;29;20041;-91
2022/03/09 09:24:36;;;;;;;2.77;1.83;;;;;;;-145.06;0.00;60892.56;4668152;29;20034;-91
2022/03/09 09:27:14;;;;;;;2.35;1.73;;;;;;;-145.06;0.00;60892.56;4656255;29;20535;-91
2022/03/09 09:29:54;;;;;;;4.63;2.47;;;;;;;-145.06;0.00;60892.56;4671694;29;20073;-91
2022/03/09 09:32:33;;;;;;;3.88;2.28;;;;;;;-145.06;0.00;60892.56;4672245;29;20030;-92
2022/03/09 09:35:13;;;;;;;4.90;2.53;;;;;;;-145.06;0.00;60892.56;4672751;29;20033;-92
2022/03/09 09:37:52;;;;;;;3.28;2.20;;;;;;;-145.06;0.00;60892.56;4672287;29;20034;-91
2022/03/09 09:40:31;;;;;;;3.72;2.50;;;;;;;-145.06;0.00;60892.56;4665025;29;20450;-92
2022/03/09 09:43:12;;;;;;;2.80;1.70;;;;;;;-145.06;0.00;60892.56;4675119;29;20034;-91
2022/03/09 09:45:52;;;;;;;3.50;2.17;;;;;;;-145.06;0.00;60892.56;4673132;29;20034;-92
2022/03/09 09:48:30;;;;;;;2.65;1.90;;;;;;;-145.06;0.00;60892.56;4680350;29;20041;-91
2022/03/09 09:51:11;;;;;;;3.28;1.98;;;;;;;-145.06;0.00;60892.56;4687599;29;20045;-92
2022/03/09 09:53:50;;;;;;;3.05;1.88;;;;;;;-145.06;0.00;60892.56;4690431;29;20037;-92
2022/03/09 09:56:30;;;;;;;3.42;1.77;;;;;;;-145.06;0.00;60892.56;4690593;29;20041;-90
2022/03/09 09:59:10;;;;;;;2.13;1.70;;;;;;;-145.06;0.00;60892.56;4672478;29;20069;-91
2022/03/09 10:01:49;;;;;;;2.38;1.48;;;;;;;-145.06;0.00;60892.56;4660289;29;20047;-90
2022/03/09 10:04:28;;;;;;;2.30;1.80;;;;;;;-145.06;0.00;60892.56;4672218;29;20061;-91
2022/03/09 10:07:07;;;;;;;2.10;1.50;;;;;;;-145.06;0.00;60892.56;4672437;29;20038;-92
2022/03/09 10:09:46;;;;;;;3.25;1.95;;;;;;;-145.06;0.00;60892.56;4672626;29;20034;-92
2022/03/09 10:12:28;;;;;;;2.28;1.50;;;;;;;-145.06;0.00;60892.56;4672506;29;20037;-91
2022/03/09 10:15:15;;;;;;;3.67;2.35;;;;;;;-145.06;0.00;60892.56;4672058;29;20038;-92
2022/03/09 10:18:11;;;;;;;3.20;2.03;;;;;;;-145.06;0.00;60892.56;4676579;29;20025;-91
2022/03/09 10:20:50;;;;;;;3.47;2.28;;;;;;;-145.06;0.00;60892.56;4661031;29;20105;-92
2022/03/09 10:23:29;;;;;;;3.88;2.15;;;;;;;-145.06;0.00;60892.56;4689933;29;20033;-91
2022/03/09 10:26:08;;;;;;;4.57;1.70;;;;;;;-145.06;0.00;60892.56;4690529;29;20059;-92
2022/03/09 10:28:59;;;;;;;2.93;2.17;;;;;;;-145.06;0.00;60892.56;4657415;29;20035;-91
2022/03/09 10:31:38;;;;;;;3.03;1.75;;;;;;;-145.06;0.00;60892.56;4660668;29;20064;-91
2022/03/09 10:34:24;;;;;;;2.73;1.90;;;;;;;-145.06;0.00;60892.56;4678757;29;20030;-91
2022/03/09 10:37:06;;;;;;;2.60;1.70;;;;;;;-145.06;0.00;60892.56;4693503;29;20282;-91
2022/03/09 10:39:45;;;;;;;2.88;2.03;;;;;;;-145.06;0.00;60892.56;4693219;29;20033;-92
2022/03/09 10:42:25;;;;;;;3.77;2.23;;;;;;;-145.06;0.00;60892.56;4681485;29;20034;-92
2022/03/09 10:45:09;;;;;;;2.38;1.60;;;;;;;-145.06;0.00;60892.56;4674361;29;20275;-91
2022/03/09 10:47:49;;;;;;;3.38;1.90;;;;;;;-145.06;0.00;60892.56;4679662;29;20026;-93
2022/03/09 10:50:28;;;;;;;3.35;2.22;;;;;;;-145.06;0.00;60892.56;4692661;29;20057;-92
2022/03/09 10:53:11;;;;;;;4.25;2.33;;;;;;;-145.06;0.00;60892.56;4664486;29;20038;-92
2022/03/09 10:55:51;;;;;;;4.40;2.33;;;;;;;-145.06;0.00;60892.56;4696860;29;20029;-93
2022/03/09 10:58:39;;;;;;;3.63;2.20;;;;;;;-145.06;0.00;60892.56;4680587;29;20037;-91
2022/03/09 11:01:20;;;;;;;3.83;2.22;;;;;;;-145.06;0.00;60892.56;4682109;29;20025;-88
2022/03/09 11:04:13;;;;;;;4.13;2.45;;;;;;;-145.06;0.00;60892.56;4675030;29;20029;-91
2022/03/09 11:06:55;;;;;;;2.75;2.03;;;;;;;-145.06;0.00;60892.56;4682478;29;20034;-90
2022/03/09 11:09:35;;;;;;;3.08;2.28;;;;;;;-145.06;0.00;60892.56;4671723;29;20034;-91
2022/03/09 11:12:17;;;;;;;3.33;2.30;;;;;;;-145.06;0.00;60892.56;4669935;29;20042;-91
2022/03/09 11:14:57;;;;;;;3.97;2.35;;;;;;;-145.06;0.00;60892.56;4692515;29;20034;-90
2022/03/09 11:17:36;;;;;;;4.30;3.00;;;;;;;-145.06;0.00;60892.56;4679377;29;20033;-91
2022/03/09 11:20:15;;;;;;;4.40;3.27;;;;;;;-145.06;0.00;60892.56;4685101;29;20049;-92
2022/03/09 11:22:55;;;;;;;3.55;2.75;;;;;;;-145.06;0.00;60892.56;4679807;29;20098;-92
2022/03/09 11:25:35;;;;;;;4.32;2.72;;;;;;;-145.06;0.00;60892.56;4685708;29;20026;-92
2022/03/09 11:28:23;;;;;;;3.45;2.53;;;;;;;-145.06;0.00;60892.56;4682806;29;20378;-91
2022/03/09 11:31:05;;;;;;;4.78;2.75;;;;;;;-145.06;0.00;60892.56;4677073;29;20034;-91
2022/03/09 11:33:47;;;;;;;3.85;2.42;;;;;;;-145.06;0.00;60892.56;4668436;29;20112;-91
2022/03/09 11:36:29;;;;;;;3.55;2.17;;;;;;;-145.06;0.00;60892.56;4675515;29;20113;-92
2022/03/09 11:39:11;;;;;;;3.50;2.53;;;;;;;-145.06;0.00;60892.56;4673512;29;20034;-91
2022/03/09 11:42:21;;;;;;;4.03;2.15;;;;;;;-145.06;0.00;60892.56;4673961;29;20038;-92
2022/03/09 11:45:22;;;;;;;2.40;1.88;;;;;;;-145.06;0.00;60892.56;4679867;29;20037;-92
2022/03/09 11:48:18;;;;;;;2.63;1.95;;;;;;;-145.06;0.00;60892.56;4669913;29;20037;-91
2022/03/09 11:51:03;;;;;;;3.38;2.20;;;;;;;-145.06;0.00;60892.56;4690395;29;20038;-91
2022/03/09 11:53:56;;;;;;;3.15;2.05;;;;;;;-145.06;0.00;60892.56;4674094;29;20025;-92
2022/03/09 11:56:37;;;;;;;5.85;2.40;;;;;;;-145.06;0.00;60892.56;4675712;29;20038;-91
2022/03/09 11:59:28;;;;;;;2.58;1.92;;;;;;;-145.06;0.00;60892.56;4664054;29;20382;-90
2022/03/09 12:02:12;;;;;;;4.07;2.55;;;;;;;-145.06;0.00;60892.56;4673794;29;20069;-91
2022/03/09 12:04:52;;;;;;;4.65;2.55;;;;;;;-145.06;0.00;60892.56;4681379;29;20025;-91
2022/03/09 12:07:33;;;;;;;3.30;2.13;;;;;;;-145.06;0.00;60892.56;4657097;29;20046;-92
2022/03/09 12:10:13;;;;;;;3.17;2.22;;;;;;;-145.06;0.00;60892.56;4664021;29;20061;-89
2022/03/09 12:13:10;;;;;;;3.45;2.38;;;;;;;-145.06;0.00;60892.56;4686177;29;20041;-91
2022/03/09 12:16:02;;;;;;;4.60;2.70;;;;;;;-145.06;0.00;60892.56;4671005;29;20034;-89
2022/03/09 12:18:44;;;;;;;4.78;2.15;;;;;;;-145.06;0.00;60892.56;4673261;29;20358;-89
2022/03/09 12:21:26;;;;;;;4.13;2.30;;;;;;;-145.06;0.00;60892.56;4682310;29;20033;-91
2022/03/09 12:24:05;;;;;;;4.65;2.42;;;;;;;-145.06;0.00;60892.56;4682716;29;20030;-89
2022/03/09 12:26:45;;;;;;;3.30;2.17;;;;;;;-145.06;0.00;60892.56;4683452;29;20033;-89
2022/03/09 12:29:27;;;;;;;4.35;2.90;;;;;;;-145.06;0.00;60892.56;4673836;29;20121;-90
2022/03/09 12:32:14;;;;;;;4.53;2.70;;;;;;;187.52;0.00;60892.56;4664789;29;20038;-90